Time;durP1;ratioP1;P1;durP2;ratioP2;P2;SDS_P1;SDS_P2;PMS_P1;PMS_P2;Temp;Humidity;BMP_temperature;BMP_pressure;BME280_temperature;BME280_humidity;BME280_pressure;Samples;Min_cycle;Max_cycle;Signal;HPM_P1;HPM_P2
2022/11/05 00:10:30;;;;;;;2.05;1.45;;;9.90;95.30;;;;;;5096632;28;20031;-87
2022/11/05 00:18:27;;;;;;;1.70;1.52;;;10.00;95.20;;;;;;5096477;28;20038;-89
2022/11/05 00:20:52;;;;;;;6.00;2.00;;;9.90;95.20;;;;;;5099019;28;20470;-88
2022/11/05 00:26:07;;;;;;;5.25;1.67;;;9.90;95.20;;;;;;5085927;28;20082;-88
2022/11/05 00:28:34;;;;;;;4.00;1.80;;;9.90;95.30;;;;;;5097253;28;20050;-88
2022/11/05 00:31:05;;;;;;;3.35;1.63;;;9.80;95.30;;;;;;5097375;28;20187;-91
2022/11/05 00:33:31;;;;;;;4.18;1.40;;;9.90;95.60;;;;;;5097903;28;20118;-92
2022/11/05 00:35:57;;;;;;;5.07;1.52;;;9.80;95.50;;;;;;5098440;28;20039;-91
2022/11/05 00:38:23;;;;;;;4.82;1.63;;;9.80;95.50;;;;;;5098031;28;20091;-90
2022/11/05 00:40:49;;;;;;;5.85;1.80;;;9.80;95.50;;;;;;5097861;28;20031;-91
2022/11/05 00:45:59;;;;;;;3.05;1.50;;;9.80;95.90;;;;;;5101924;28;20404;-91
2022/11/05 00:51:09;;;;;;;3.10;1.40;;;9.80;95.70;;;;;;5111625;28;20087;-91
2022/11/05 00:53:35;;;;;;;3.03;1.55;;;9.90;95.80;;;;;;5103506;28;20048;-91
2022/11/05 00:56:01;;;;;;;5.18;1.90;;;9.90;95.90;;;;;;5104516;28;20038;-90
2022/11/05 00:58:28;;;;;;;3.50;1.27;;;9.90;95.60;;;;;;5103110;28;20024;-85
2022/11/05 01:00:58;;;;;;;4.35;2.10;;;10.00;95.90;;;;;;5098766;28;20032;-84
2022/11/05 01:03:29;;;;;;;6.07;1.73;;;10.10;96.00;;;;;;5096960;28;20462;-85
2022/11/05 01:05:58;;;;;;;2.60;1.35;;;10.10;95.80;;;;;;5099811;28;20027;-85
2022/11/05 01:08:26;;;;;;;5.35;1.75;;;10.10;95.70;;;;;;5097193;28;20023;-84
2022/11/05 01:10:55;;;;;;;3.92;1.60;;;10.10;95.60;;;;;;5095249;28;20099;-84
2022/11/05 01:13:26;;;;;;;3.65;1.70;;;10.00;95.60;;;;;;5094495;28;20111;-84
2022/11/05 01:15:53;;;;;;;4.20;1.30;;;10.00;95.80;;;;;;5093365;28;20536;-85
2022/11/05 01:18:19;;;;;;;4.28;1.40;;;10.10;95.80;;;;;;5095151;28;20020;-85
2022/11/05 01:20:45;;;;;;;3.00;1.55;;;10.10;95.70;;;;;;5095296;28;20032;-85
2022/11/05 01:23:11;;;;;;;3.40;1.33;;;10.10;95.80;;;;;;5096567;28;20074;-85
2022/11/05 01:25:37;;;;;;;3.47;1.70;;;10.10;95.90;;;;;;5094669;28;20024;-85
2022/11/05 01:28:03;;;;;;;5.10;1.67;;;10.10;95.90;;;;;;5095079;28;20444;-84
2022/11/05 01:30:29;;;;;;;2.50;1.50;;;10.10;95.80;;;;;;5095238;28;20036;-91
2022/11/05 01:32:55;;;;;;;3.95;1.23;;;10.10;95.80;;;;;;5097094;28;20024;-91
2022/11/05 01:35:21;;;;;;;4.70;1.80;;;10.10;95.80;;;;;;5097265;28;20035;-91
2022/11/05 01:37:46;;;;;;;2.83;1.13;;;10.10;96.00;;;;;;5096703;28;20396;-90
2022/11/05 01:40:19;;;;;;;2.63;1.40;;;10.10;95.90;;;;;;5096630;28;20046;-90
2022/11/05 01:42:45;;;;;;;4.55;1.58;;;10.10;96.10;;;;;;5096472;28;20024;-92
2022/11/05 01:45:24;;;;;;;6.40;1.60;;;10.10;96.00;;;;;;5096950;28;20071;-92
2022/11/05 01:48:12;;;;;;;4.10;1.58;;;10.10;96.10;;;;;;5097056;28;20056;-91
2022/11/05 01:50:38;;;;;;;2.35;1.30;;;10.10;95.90;;;;;;5086158;28;20028;-91
2022/11/05 01:53:19;;;;;;;3.63;1.38;;;10.10;95.80;;;;;;5093176;28;20060;-92
2022/11/05 01:56:01;;;;;;;2.78;1.35;;;10.00;95.80;;;;;;5088325;28;20046;-84
2022/11/05 01:58:36;;;;;;;3.90;1.63;;;10.00;96.00;;;;;;5094884;28;20024;-84
2022/11/05 02:01:01;;;;;;;5.03;1.25;;;10.00;96.20;;;;;;5096737;28;20107;-84
2022/11/05 02:03:28;;;;;;;3.88;1.38;;;10.10;96.30;;;;;;5096584;28;20063;-84
2022/11/05 02:05:57;;;;;;;4.38;1.67;;;10.10;96.10;;;;;;5097171;28;20380;-85
2022/11/05 02:08:47;;;;;;;3.42;1.40;;;10.00;96.20;;;;;;5095034;28;20027;-84
2022/11/05 02:11:17;;;;;;;6.82;1.98;;;10.10;96.20;;;;;;5083202;28;20036;-85
2022/11/05 02:13:43;;;;;;;3.95;1.92;;;10.00;96.00;;;;;;5095523;28;20028;-88
2022/11/05 02:16:11;;;;;;;5.28;1.27;;;10.00;96.20;;;;;;5075327;28;20032;-86
2022/11/05 02:19:03;;;;;;;5.55;1.85;;;10.00;96.30;;;;;;5098307;28;20366;-86
2022/11/05 02:22:00;;;;;;;3.15;1.40;;;10.10;96.50;;;;;;5091073;28;20032;-86
2022/11/05 02:24:39;;;;;;;3.65;1.55;;;10.10;96.50;;;;;;5096379;28;20032;-86
2022/11/05 02:27:43;;;;;;;3.00;1.13;;;10.10;96.40;;;;;;5094910;28;20025;-86
2022/11/05 02:30:34;;;;;;;2.38;1.10;;;10.10;96.40;;;;;;5095103;28;20064;-86
2022/11/05 02:33:16;;;;;;;2.65;1.20;;;10.00;96.20;;;;;;5098657;28;20024;-86
2022/11/05 02:36:07;;;;;;;3.08;1.30;;;10.00;96.10;;;;;;5098930;28;20035;-86
2022/11/05 02:38:54;;;;;;;2.42;1.38;;;10.00;96.40;;;;;;5098569;28;20020;-86
2022/11/05 02:41:37;;;;;;;1.90;1.05;;;10.00;96.70;;;;;;5100082;28;20028;-91
2022/11/05 02:44:38;;;;;;;3.37;1.37;;;10.10;96.70;;;;;;5100362;28;20111;-89
2022/11/05 02:47:03;;;;;;;2.08;1.13;;;10.10;96.50;;;;;;5063397;28;20029;-91
2022/11/05 02:49:48;;;;;;;2.97;1.15;;;10.10;96.50;;;;;;5094554;28;20085;-90
2022/11/05 02:52:31;;;;;;;3.13;1.50;;;10.10;96.50;;;;;;5099725;28;20496;-90
2022/11/05 02:55:15;;;;;;;3.45;1.30;;;10.10;96.50;;;;;;5099899;28;20055;-90
2022/11/05 02:57:46;;;;;;;3.90;1.77;;;10.10;96.50;;;;;;5099662;28;20567;-90
2022/11/05 03:00:36;;;;;;;4.85;2.17;;;10.10;96.60;;;;;;5099650;28;20020;-92
2022/11/05 03:03:04;;;;;;;2.63;1.42;;;10.10;96.70;;;;;;5099705;28;20032;-93
2022/11/05 03:05:53;;;;;;;4.90;1.45;;;10.10;96.80;;;;;;5099588;28;20096;-92
2022/11/05 03:08:40;;;;;;;5.63;1.60;;;10.10;96.80;;;;;;5109445;28;20046;-92
2022/11/05 03:11:13;;;;;;;3.38;1.70;;;10.10;96.80;;;;;;5106913;28;20020;-92
2022/11/05 03:14:19;;;;;;;3.42;1.75;;;10.10;96.90;;;;;;5099865;28;20028;-92
2022/11/05 03:17:35;;;;;;;3.45;1.55;;;10.10;96.60;;;;;;5090877;28;20028;-92
2022/11/05 03:20:19;;;;;;;2.45;1.27;;;10.10;96.70;;;;;;5033355;28;20033;-92
2022/11/05 03:23:11;;;;;;;2.95;1.55;;;10.10;97.00;;;;;;5080861;28;20058;-92
2022/11/05 03:25:43;;;;;;;4.22;1.58;;;10.10;97.00;;;;;;5099113;28;20036;-92
2022/11/05 03:28:11;;;;;;;2.70;1.20;;;10.10;97.00;;;;;;5100902;28;20025;-91
2022/11/05 03:30:39;;;;;;;3.63;1.30;;;10.20;97.00;;;;;;5099189;28;20119;-92
2022/11/05 03:33:15;;;;;;;2.85;1.40;;;10.20;96.90;;;;;;5099109;28;20023;-92
2022/11/05 03:35:46;;;;;;;2.50;1.50;;;10.20;97.00;;;;;;5086042;28;20172;-93
2022/11/05 03:38:25;;;;;;;5.20;1.70;;;10.10;96.70;;;;;;5099143;28;20068;-92
2022/11/05 03:40:55;;;;;;;2.60;1.20;;;10.10;96.90;;;;;;5098903;28;20028;-92
2022/11/05 03:43:35;;;;;;;2.38;1.10;;;10.10;96.90;;;;;;5098698;28;20050;-90
2022/11/05 03:46:20;;;;;;;4.70;1.50;;;10.10;96.90;;;;;;5099463;28;20024;-89
2022/11/05 03:48:51;;;;;;;4.45;1.42;;;10.10;96.80;;;;;;5085496;28;20028;-88
2022/11/05 03:51:41;;;;;;;2.25;1.20;;;10.00;96.80;;;;;;5097791;28;20028;-88
2022/11/05 03:54:09;;;;;;;2.63;1.10;;;10.00;96.90;;;;;;5097551;28;20097;-87
2022/11/05 03:57:25;;;;;;;;;;;;;;;;;;;;;
2022/11/05 03:59:55;;;;;;;2.53;1.23;;;10.00;97.20;;;;;;5097673;28;20115;-87
2022/11/05 04:02:40;;;;;;;3.67;1.00;;;10.10;97.20;;;;;;5098597;28;20038;-87
2022/11/05 04:05:35;;;;;;;1.98;1.05;;;10.00;97.10;;;;;;5086325;28;20024;-88
2022/11/05 04:13:36;;;;;;;3.33;1.60;;;10.00;97.10;;;;;;5099201;28;20119;-89
2022/11/05 04:18:46;;;;;;;3.67;1.33;;;10.00;97.20;;;;;;5099076;28;20068;-90
2022/11/05 04:24:08;;;;;;;3.65;1.30;;;10.00;97.10;;;;;;5098584;28;20061;-92
2022/11/05 04:26:44;;;;;;;3.40;1.20;;;10.00;97.30;;;;;;5098096;28;20016;-91
2022/11/05 04:31:55;;;;;;;4.47;1.45;;;10.00;97.10;;;;;;5099092;28;20395;-91
2022/11/05 04:34:21;;;;;;;3.88;1.42;;;10.00;97.10;;;;;;5098973;28;20056;-92
2022/11/05 04:36:51;;;;;;;4.00;1.20;;;9.90;97.30;;;;;;5097905;28;20035;-91
2022/11/05 04:39:18;;;;;;;4.70;1.38;;;10.00;97.40;;;;;;5097872;28;20113;-92
2022/11/05 04:41:47;;;;;;;3.25;1.30;;;10.00;97.20;;;;;;5097747;28;20028;-92
2022/11/05 04:44:14;;;;;;;2.30;1.25;;;10.00;97.30;;;;;;5086653;28;20023;-90
2022/11/05 04:46:40;;;;;;;3.47;1.35;;;9.90;97.20;;;;;;5094777;28;20066;-86
2022/11/05 04:49:05;;;;;;;4.78;1.15;;;9.90;97.50;;;;;;5097673;28;20024;-86
2022/11/05 04:51:36;;;;;;;2.80;1.13;;;10.00;97.50;;;;;;5095996;28;20148;-85
2022/11/05 04:54:19;;;;;;;5.85;1.50;;;10.00;97.60;;;;;;5095261;28;20078;-85
2022/11/05 04:57:05;;;;;;;2.63;1.17;;;10.00;97.60;;;;;;5096742;28;20042;-84
2022/11/05 05:03:29;;;;;;;3.08;1.38;;;10.10;97.70;;;;;;4991460;28;20033;-88
2022/11/05 05:05:57;;;;;;;;;;;10.20;97.50;;;;;;5069157;28;20039;-85
2022/11/05 05:08:23;;;;;;;2.13;1.02;;;10.20;97.50;;;;;;5095368;28;19904;-85
2022/11/05 05:10:48;;;;;;;2.13;1.10;;;10.20;97.60;;;;;;5098763;28;20072;-85
2022/11/05 05:13:14;;;;;;;3.15;1.20;;;10.20;97.40;;;;;;5095891;28;20059;-86
2022/11/05 05:15:40;;;;;;;2.83;1.50;;;10.20;97.50;;;;;;5105092;28;20031;-91
2022/11/05 05:18:24;;;;;;;;;;;;;;;;;;;;;
2022/11/05 05:23:34;;;;;;;1.88;1.10;;;10.10;97.50;;;;;;5098106;28;20088;-90
2022/11/05 05:26:02;;;;;;;3.72;1.35;;;10.10;97.50;;;;;;5097034;28;20456;-90
2022/11/05 05:28:30;;;;;;;2.80;1.58;;;10.10;97.50;;;;;;5096952;28;20024;-90
2022/11/05 05:30:59;;;;;;;3.80;1.40;;;10.10;97.60;;;;;;5096923;28;20020;-89
2022/11/05 05:34:00;;;;;;;4.18;1.48;;;10.10;98.00;;;;;;5096023;28;20024;-89
2022/11/05 05:36:28;;;;;;;4.53;1.40;;;10.20;97.80;;;;;;5073719;28;20514;-84
2022/11/05 05:38:54;;;;;;;3.78;1.40;;;10.20;97.60;;;;;;5096376;28;20077;-83
2022/11/05 05:41:20;;;;;;;4.63;1.60;;;10.20;97.90;;;;;;5094812;28;20020;-83
2022/11/05 05:43:46;;;;;;;2.67;1.20;;;10.20;97.90;;;;;;5096060;28;20020;-84
2022/11/05 05:46:13;;;;;;;3.95;1.65;;;10.20;97.80;;;;;;5096049;28;20423;-83
2022/11/05 06:04:37;;;;;;;3.88;1.30;;;10.20;97.70;;;;;;5306159;22;20079;-83
2022/11/05 06:07:03;;;;;;;3.90;1.45;;;10.20;97.80;;;;;;5062401;28;20427;-83
2022/11/05 06:09:28;;;;;;;3.60;1.35;;;10.20;97.90;;;;;;5062168;28;20086;-84
2022/11/05 06:11:54;;;;;;;3.67;1.55;;;10.20;97.80;;;;;;5061977;28;20025;-83
2022/11/05 06:14:20;;;;;;;3.25;1.35;;;10.20;97.80;;;;;;5062050;28;20127;-83
2022/11/05 06:16:45;;;;;;;3.15;1.40;;;10.20;97.80;;;;;;5080076;28;20024;-84
2022/11/05 06:19:16;;;;;;;4.65;1.30;;;10.20;97.80;;;;;;5056535;28;20116;-85
2022/11/05 06:22:08;;;;;;;2.75;1.52;;;10.20;97.90;;;;;;5054683;28;20111;-85
2022/11/05 06:24:44;;;;;;;4.10;1.35;;;10.20;98.00;;;;;;5071152;28;20033;-85
2022/11/05 06:37:33;;;;;;;;;;;;;;;;;;;;;
2022/11/05 06:46:51;;;;;;;4.25;1.30;;;10.20;98.00;;;;;;5679104;22;20104;-88
2022/11/05 06:49:17;;;;;;;1.90;0.98;;;10.30;98.00;;;;;;5007054;28;20042;-84
2022/11/05 06:51:42;;;;;;;1.80;0.98;;;10.30;98.10;;;;;;4980986;28;20034;-85
2022/11/05 06:54:08;;;;;;;3.15;1.20;;;10.30;98.10;;;;;;4975221;28;20035;-86
2022/11/05 06:56:34;;;;;;;4.15;1.33;;;10.30;98.10;;;;;;4978997;28;20052;-86
2022/11/05 06:58:59;;;;;;;3.35;1.08;;;10.30;98.00;;;;;;4978805;28;20037;-86
2022/11/05 07:01:25;;;;;;;2.70;1.20;;;10.30;98.10;;;;;;4960478;28;20026;-83
2022/11/05 07:03:51;;;;;;;5.30;1.15;;;10.40;98.00;;;;;;4984148;28;20027;-82
2022/11/05 07:06:16;;;;;;;4.25;1.10;;;10.30;98.00;;;;;;4959739;28;20019;-82
2022/11/05 07:08:42;;;;;;;2.08;1.00;;;10.40;98.50;;;;;;4959660;28;20031;-83
2022/11/05 07:11:08;;;;;;;3.95;1.30;;;10.40;97.90;;;;;;4959513;28;20027;-82
2022/11/05 07:13:33;;;;;;;3.58;1.17;;;10.30;97.90;;;;;;4976794;28;20114;-81
2022/11/05 07:15:59;;;;;;;2.88;1.27;;;10.40;97.90;;;;;;4976376;28;20030;-82
2022/11/05 07:18:25;;;;;;;3.25;1.17;;;10.40;98.00;;;;;;4976810;28;20507;-83
2022/11/05 07:20:50;;;;;;;2.42;0.90;;;10.40;98.10;;;;;;4959577;28;20026;-84
2022/11/05 07:23:16;;;;;;;3.85;1.05;;;10.40;98.20;;;;;;4976926;28;20395;-83
2022/11/05 07:25:42;;;;;;;2.15;1.10;;;10.50;98.50;;;;;;4977005;28;20387;-85
2022/11/05 07:28:08;;;;;;;3.22;1.00;;;10.50;98.20;;;;;;4976867;28;20076;-85
2022/11/05 07:30:35;;;;;;;2.30;1.27;;;10.50;98.20;;;;;;4989892;28;20011;-86
2022/11/05 07:33:01;;;;;;;2.22;1.10;;;10.50;98.20;;;;;;5044122;28;20475;-86
2022/11/05 07:35:26;;;;;;;1.45;0.90;;;10.50;97.90;;;;;;4976683;28;20050;-85
2022/11/05 07:37:53;;;;;;;3.30;1.15;;;10.50;98.10;;;;;;5010918;28;20026;-87
2022/11/05 07:40:19;;;;;;;2.78;1.23;;;10.60;98.20;;;;;;4990416;28;20722;-84
2022/11/05 07:42:47;;;;;;;1.77;1.00;;;10.50;98.10;;;;;;5006596;28;20103;-84
2022/11/05 07:45:13;;;;;;;2.72;1.40;;;10.60;98.10;;;;;;5043671;28;20487;-85
2022/11/05 07:47:45;;;;;;;3.05;1.27;;;10.60;98.10;;;;;;5043281;28;20055;-84
2022/11/05 07:50:11;;;;;;;3.20;1.25;;;10.60;98.20;;;;;;5043342;28;20756;-83
2022/11/05 07:52:37;;;;;;;4.22;1.40;;;10.60;98.20;;;;;;5001776;28;20031;-84
2022/11/05 07:55:03;;;;;;;3.03;1.15;;;10.70;98.20;;;;;;4978448;28;20108;-84
2022/11/05 07:57:28;;;;;;;1.83;1.02;;;10.60;98.30;;;;;;4978331;28;20061;-85
2022/11/05 07:59:54;;;;;;;2.63;1.20;;;10.70;98.20;;;;;;4995607;28;20076;-85
2022/11/05 08:02:20;;;;;;;4.65;1.50;;;10.70;98.20;;;;;;4970268;28;20031;-87
2022/11/05 08:04:45;;;;;;;2.28;1.13;;;10.70;98.10;;;;;;4986311;28;20491;-85
2022/11/05 08:07:11;;;;;;;2.58;1.10;;;10.70;98.30;;;;;;4968782;28;20031;-83
2022/11/05 08:09:37;;;;;;;2.80;1.10;;;10.70;98.40;;;;;;4984219;28;20050;-86
2022/11/05 08:12:06;;;;;;;3.88;1.27;;;10.80;98.40;;;;;;4967196;28;20019;-85
2022/11/05 08:14:34;;;;;;;2.63;1.02;;;10.80;98.20;;;;;;4969418;28;20023;-85
2022/11/05 08:17:00;;;;;;;3.55;0.95;;;10.80;98.20;;;;;;4969004;28;20112;-85
2022/11/05 08:19:29;;;;;;;4.50;1.20;;;10.80;98.10;;;;;;4986877;28;20035;-88
2022/11/05 08:21:54;;;;;;;2.97;1.17;;;10.80;98.20;;;;;;4969706;28;20033;-87
2022/11/05 08:24:20;;;;;;;2.45;1.00;;;10.80;98.10;;;;;;4967183;28;20034;-86
2022/11/05 08:26:45;;;;;;;3.97;1.20;;;10.80;98.10;;;;;;4985640;28;20033;-84
2022/11/05 08:29:11;;;;;;;4.53;1.10;;;10.80;98.20;;;;;;4984428;28;20056;-85
2022/11/05 08:31:37;;;;;;;2.42;1.23;;;10.80;98.30;;;;;;4986240;28;20019;-86
2022/11/05 08:34:03;;;;;;;3.90;1.27;;;10.90;98.30;;;;;;4969524;28;20034;-85
2022/11/05 08:36:28;;;;;;;4.75;1.23;;;10.90;98.40;;;;;;4967872;28;20018;-85
2022/11/05 08:38:54;;;;;;;4.00;1.15;;;10.90;98.20;;;;;;4967805;28;20026;-88
2022/11/05 08:41:20;;;;;;;6.07;1.60;;;11.00;98.10;;;;;;4988309;28;20054;-87
2022/11/05 08:43:45;;;;;;;2.63;1.40;;;11.00;98.20;;;;;;4966010;28;20082;-87
2022/11/05 08:46:11;;;;;;;7.25;1.77;;;11.00;98.20;;;;;;4965520;28;20023;-88
2022/11/05 08:48:39;;;;;;;3.20;1.13;;;11.10;98.40;;;;;;4977943;28;20026;-85
2022/11/05 08:51:07;;;;;;;5.20;1.13;;;11.10;98.20;;;;;;4977791;28;20444;-86
2022/11/05 08:53:33;;;;;;;4.78;1.40;;;11.10;98.30;;;;;;4977746;28;20399;-85
2022/11/05 08:55:59;;;;;;;4.55;1.13;;;11.20;98.30;;;;;;5016235;28;20027;-84
2022/11/05 08:58:25;;;;;;;3.50;1.20;;;11.20;98.40;;;;;;4975734;28;20029;-84
2022/11/05 09:00:50;;;;;;;6.32;1.27;;;11.30;98.30;;;;;;5020627;28;20093;-85
2022/11/05 09:03:16;;;;;;;4.78;1.40;;;11.30;98.10;;;;;;4978782;28;20042;-84
2022/11/05 09:05:42;;;;;;;2.50;1.10;;;11.40;98.10;;;;;;4968185;28;20109;-82
2022/11/05 09:08:18;;;;;;;4.50;1.40;;;11.40;98.20;;;;;;4984309;28;20058;-82
2022/11/05 09:10:45;;;;;;;2.00;0.90;;;11.40;98.20;;;;;;4985442;28;20026;-85
2022/11/05 09:13:11;;;;;;;3.60;1.13;;;11.50;98.30;;;;;;4970207;28;20038;-83
2022/11/05 09:15:37;;;;;;;2.47;1.20;;;11.50;98.00;;;;;;4983741;28;20026;-81
2022/11/05 09:18:06;;;;;;;9.63;1.83;;;11.50;98.00;;;;;;4981050;28;20113;-83
2022/11/05 09:20:32;;;;;;;4.85;1.52;;;11.50;98.00;;;;;;4969899;28;20030;-80
2022/11/05 09:22:59;;;;;;;6.10;1.48;;;11.50;98.10;;;;;;4977990;28;20035;-82
2022/11/05 09:25:25;;;;;;;15.07;5.68;;;11.50;98.20;;;;;;4989330;28;20435;-82
2022/11/05 09:27:50;;;;;;;5.43;2.55;;;11.50;98.10;;;;;;4977828;28;20030;-78
2022/11/05 09:30:16;;;;;;;7.13;1.80;;;11.50;98.30;;;;;;4994963;28;20386;-80
2022/11/05 09:32:42;;;;;;;2.42;1.30;;;11.50;98.20;;;;;;4993342;28;20022;-76
2022/11/05 09:35:08;;;;;;;3.85;1.60;;;11.50;98.30;;;;;;4987764;28;20042;-74
2022/11/05 09:37:35;;;;;;;3.58;1.27;;;11.50;98.50;;;;;;4982455;28;20403;-78
2022/11/05 09:40:01;;;;;;;5.32;1.63;;;11.60;98.70;;;;;;4982604;28;20035;-77
2022/11/05 09:42:38;;;;;;;4.25;1.40;;;11.70;98.80;;;;;;4984568;28;20356;-79
2022/11/05 09:45:13;;;;;;;4.30;1.40;;;11.80;98.90;;;;;;5003629;28;20038;-74
2022/11/05 09:47:47;;;;;;;7.15;1.55;;;11.90;98.90;;;;;;4983125;28;20039;-77
2022/11/05 09:50:24;;;;;;;6.97;1.70;;;12.00;99.30;;;;;;4982624;28;20029;-75
2022/11/05 09:52:50;;;;;;;6.80;1.30;;;12.10;98.80;;;;;;4981415;28;20031;-75
2022/11/05 09:55:35;;;;;;;4.55;1.00;;;12.20;98.90;;;;;;4993159;28;20034;-79
2022/11/05 09:58:13;;;;;;;3.70;1.00;;;12.30;98.80;;;;;;4975199;28;20376;-78
2022/11/05 10:00:39;;;;;;;2.65;1.35;;;12.30;98.60;;;;;;4986319;28;20038;-77
2022/11/05 10:03:10;;;;;;;5.93;1.70;;;12.30;98.40;;;;;;4994313;28;20030;-76
2022/11/05 10:05:36;;;;;;;7.30;1.67;;;12.40;98.50;;;;;;4994694;28;20034;-80
2022/11/05 10:08:11;;;;;;;4.70;1.40;;;12.40;98.50;;;;;;4988227;28;20023;-75
2022/11/05 10:11:08;;;;;;;4.90;1.40;;;12.50;98.60;;;;;;4988943;28;20031;-78
2022/11/05 10:13:50;;;;;;;4.85;1.67;;;12.50;98.70;;;;;;4991103;28;20034;-77
2022/11/05 10:16:25;;;;;;;2.83;1.58;;;12.50;98.40;;;;;;4977060;28;20037;-79
2022/11/05 10:19:00;;;;;;;3.95;1.58;;;12.50;98.30;;;;;;4994398;28;20056;-79
2022/11/05 10:21:26;;;;;;;6.25;1.20;;;12.50;98.40;;;;;;4994283;28;20053;-82
2022/11/05 10:23:51;;;;;;;4.97;1.67;;;12.60;98.50;;;;;;4991613;28;20027;-81
2022/11/05 10:26:25;;;;;;;2.55;1.38;;;12.60;98.50;;;;;;4993867;28;20356;-79
2022/11/05 10:28:51;;;;;;;3.42;1.25;;;12.60;98.50;;;;;;4994257;28;20027;-81
2022/11/05 10:31:20;;;;;;;5.25;1.75;;;12.70;98.60;;;;;;4994062;28;20061;-81
2022/11/05 10:33:58;;;;;;;3.67;1.08;;;12.80;98.60;;;;;;4989784;28;20097;-80
2022/11/05 10:36:30;;;;;;;3.75;1.40;;;12.90;98.60;;;;;;4974795;28;20023;-82
2022/11/05 10:39:04;;;;;;;4.85;1.35;;;12.90;98.60;;;;;;5030985;28;20027;-79
2022/11/05 10:41:54;;;;;;;4.97;1.58;;;13.00;98.50;;;;;;4985557;28;20026;-80
2022/11/05 10:44:41;;;;;;;4.53;1.65;;;13.10;98.60;;;;;;4995966;28;20033;-75
2022/11/05 10:47:21;;;;;;;5.55;1.40;;;13.10;98.70;;;;;;4974477;28;20051;-83
2022/11/05 10:49:53;;;;;;;3.63;1.30;;;13.20;98.50;;;;;;4974846;28;20368;-74
2022/11/05 10:52:26;;;;;;;5.03;1.35;;;13.20;98.20;;;;;;4978081;28;20026;-74
2022/11/05 10:54:54;;;;;;;5.82;1.35;;;13.20;98.20;;;;;;4990635;28;20499;-72
2022/11/05 10:57:33;;;;;;;4.03;1.10;;;13.20;98.00;;;;;;4978073;28;20031;-77
2022/11/05 11:00:14;;;;;;;6.53;1.65;;;13.30;98.40;;;;;;5044970;28;20026;-73
2022/11/05 11:03:01;;;;;;;4.78;1.13;;;13.30;98.30;;;;;;5044731;28;20112;-75
2022/11/05 11:05:31;;;;;;;4.93;1.15;;;13.30;98.30;;;;;;5044217;28;20045;-75
2022/11/05 11:08:26;;;;;;;6.63;1.30;;;13.40;98.20;;;;;;4989741;28;20105;-75
2022/11/05 11:11:00;;;;;;;5.15;1.40;;;13.40;98.40;;;;;;4974272;28;20118;-74
2022/11/05 11:13:45;;;;;;;3.05;1.00;;;13.50;98.10;;;;;;4985663;28;20029;-72
2022/11/05 11:16:22;;;;;;;4.50;0.90;;;13.50;97.80;;;;;;4969563;28;20034;-76
2022/11/05 11:19:02;;;;;;;3.50;1.05;;;13.60;98.10;;;;;;4977523;28;20076;-76
2022/11/05 11:21:30;;;;;;;4.72;1.42;;;13.70;98.20;;;;;;4980020;28;20038;-71
2022/11/05 11:23:59;;;;;;;4.60;1.20;;;13.70;97.80;;;;;;4977488;28;20027;-74
2022/11/05 11:26:31;;;;;;;2.47;0.77;;;13.70;97.80;;;;;;5044030;28;20030;-74
2022/11/05 11:29:14;;;;;;;5.18;1.02;;;13.70;97.70;;;;;;4977662;28;20031;-75
2022/11/05 11:31:41;;;;;;;3.10;0.90;;;13.70;97.70;;;;;;4977367;28;20429;-75
2022/11/05 11:34:22;;;;;;;7.07;0.90;;;13.80;97.90;;;;;;4986406;28;20117;-75
2022/11/05 11:36:52;;;;;;;3.63;0.90;;;13.80;97.90;;;;;;4978955;28;20079;-73
2022/11/05 11:39:23;;;;;;;5.10;0.98;;;13.80;97.80;;;;;;4989333;28;20031;-77
2022/11/05 11:41:55;;;;;;;2.97;0.93;;;13.90;98.00;;;;;;4986189;28;20123;-78
2022/11/05 11:44:35;;;;;;;5.78;1.10;;;14.00;98.10;;;;;;4959844;28;20026;-77
2022/11/05 11:47:11;;;;;;;4.32;1.00;;;14.00;97.90;;;;;;4984241;28;20074;-76
2022/11/05 11:49:44;;;;;;;2.85;1.08;;;14.00;97.70;;;;;;4995057;28;20029;-74
2022/11/05 11:52:13;;;;;;;5.85;1.00;;;14.00;97.60;;;;;;4976539;28;20031;-75
2022/11/05 11:54:39;;;;;;;3.33;0.85;;;14.00;97.40;;;;;;4991707;28;20039;-81
2022/11/05 11:57:25;;;;;;;2.55;0.70;;;13.90;97.30;;;;;;4977152;28;20089;-75
2022/11/05 11:59:53;;;;;;;4.68;0.88;;;13.80;97.40;;;;;;4957719;28;20038;-75
2022/11/05 12:02:34;;;;;;;3.33;1.05;;;13.80;97.20;;;;;;4957637;28;20528;-74
2022/11/05 12:05:08;;;;;;;2.53;0.60;;;13.70;97.30;;;;;;4980685;28;20095;-73
2022/11/05 12:07:56;;;;;;;4.20;0.80;;;13.70;97.40;;;;;;4973600;28;20026;-73
2022/11/05 12:10:22;;;;;;;2.35;0.70;;;13.60;97.70;;;;;;4976376;28;20365;-74
2022/11/05 12:13:15;;;;;;;3.60;0.73;;;13.60;97.90;;;;;;4981623;28;20065;-74
2022/11/05 12:16:16;;;;;;;3.38;0.60;;;13.50;98.10;;;;;;4978255;28;20087;-74
2022/11/05 12:19:23;;;;;;;4.05;1.10;;;13.50;98.40;;;;;;4994259;28;20068;-76
2022/11/05 12:22:09;;;;;;;2.95;0.70;;;13.40;99.10;;;;;;4987018;28;20033;-76
2022/11/05 12:24:35;;;;;;;2.30;0.77;;;13.50;98.90;;;;;;4975937;28;20506;-76
2022/11/05 12:27:10;;;;;;;1.85;0.80;;;13.50;99.10;;;;;;5043447;28;20026;-75
2022/11/05 12:29:58;;;;;;;4.70;1.00;;;13.50;99.00;;;;;;4978048;28;20026;-75
2022/11/05 12:32:54;;;;;;;3.28;1.02;;;13.50;99.00;;;;;;4995928;28;20023;-77
2022/11/05 12:35:32;;;;;;;3.72;0.70;;;13.40;99.00;;;;;;4978052;28;20027;-79
2022/11/05 12:38:20;;;;;;;4.60;0.90;;;13.40;99.10;;;;;;4978939;28;20037;-75
2022/11/05 12:41:12;;;;;;;2.53;1.05;;;13.40;99.10;;;;;;4976194;28;20023;-76
2022/11/05 12:44:01;;;;;;;2.42;0.82;;;13.40;99.00;;;;;;4976134;28;20603;-76
2022/11/05 12:47:06;;;;;;;5.35;1.30;;;13.40;99.10;;;;;;4994840;28;20062;-76
2022/11/05 12:50:03;;;;;;;2.78;1.00;;;13.50;99.20;;;;;;4976992;28;20022;-76
2022/11/05 12:52:31;;;;;;;6.28;1.25;;;13.50;99.20;;;;;;4999349;28;20038;-78
2022/11/05 12:55:36;;;;;;;2.67;0.98;;;13.50;99.20;;;;;;5014908;28;20031;-74
2022/11/05 12:58:35;;;;;;;3.58;0.82;;;13.50;99.30;;;;;;4998826;28;20049;-75
2022/11/05 13:01:11;;;;;;;2.65;0.77;;;13.50;99.40;;;;;;4950400;28;20081;-75
2022/11/05 13:03:43;;;;;;;3.05;1.17;;;13.50;99.90;;;;;;4975923;28;20438;-77
2022/11/05 13:06:17;;;;;;;5.13;1.73;;;13.60;99.50;;;;;;5042393;28;20023;-71
2022/11/05 13:08:46;;;;;;;4.80;1.33;;;13.50;99.50;;;;;;4967185;28;20073;-72
2022/11/05 13:11:34;;;;;;;2.67;0.95;;;13.50;99.60;;;;;;4982886;28;20092;-79
2022/11/05 13:14:15;;;;;;;6.43;2.20;;;13.60;99.80;;;;;;4991613;28;20030;-73
2022/11/05 13:16:46;;;;;;;3.22;1.58;;;13.60;99.80;;;;;;4982781;28;20113;-75
2022/11/05 13:19:45;;;;;;;4.30;1.60;;;13.60;99.90;;;;;;4983801;28;20041;-75
2022/11/05 13:22:33;;;;;;;4.88;1.90;;;13.70;99.90;;;;;;4977135;28;20113;-75
2022/11/05 13:25:04;;;;;;;6.03;1.67;;;13.60;99.90;;;;;;4985114;28;20532;-75
2022/11/05 13:27:59;;;;;;;4.70;1.80;;;13.60;99.90;;;;;;4984161;28;20383;-76
2022/11/05 13:30:30;;;;;;;4.60;2.17;;;13.70;99.90;;;;;;4935960;28;20040;-80
2022/11/05 13:33:03;;;;;;;4.03;1.98;;;13.70;99.90;;;;;;4983295;28;20056;-80
2022/11/05 13:35:47;;;;;;;5.60;2.00;;;13.60;99.90;;;;;;4981930;28;20041;-80
2022/11/05 13:41:20;;;;;;;6.20;2.15;;;13.60;99.90;;;;;;4975428;28;19960;-76
2022/11/05 13:43:54;;;;;;;4.57;2.05;;;13.60;99.90;;;;;;4975373;28;20051;-77
2022/11/05 13:46:38;;;;;;;8.45;2.75;;;13.60;99.90;;;;;;4975290;28;20039;-78
2022/11/05 13:49:46;;;;;;;5.07;2.40;;;13.60;99.90;;;;;;4975216;28;20027;-79
2022/11/05 13:52:50;;;;;;;5.68;2.85;;;13.60;99.90;;;;;;4973222;28;20045;-80
2022/11/05 13:55:53;;;;;;;7.72;3.88;;;13.50;99.90;;;;;;4966637;28;20045;-80
2022/11/05 13:58:18;;;;;;;7.43;3.35;;;13.50;99.90;;;;;;4984280;28;20030;-78
2022/11/05 14:01:16;;;;;;;7.63;3.50;;;13.50;99.90;;;;;;4991325;28;20116;-79
2022/11/05 14:03:50;;;;;;;6.07;2.80;;;13.50;99.90;;;;;;4993866;28;20032;-78
2022/11/05 14:06:27;;;;;;;4.63;2.38;;;13.50;99.90;;;;;;4998867;28;20015;-77
2022/11/05 14:08:58;;;;;;;5.70;2.65;;;13.50;99.90;;;;;;4987086;28;20019;-77
2022/11/05 14:11:30;;;;;;;5.78;2.42;;;13.50;99.90;;;;;;4974798;28;20023;-77
2022/11/05 14:14:00;;;;;;;3.95;1.80;;;13.50;99.90;;;;;;4989944;28;20093;-75
2022/11/05 14:16:38;;;;;;;3.40;1.40;;;13.50;99.90;;;;;;4975121;28;20027;-79
2022/11/05 14:19:19;;;;;;;6.50;1.70;;;13.60;99.90;;;;;;4982187;28;20033;-78
2022/11/05 14:21:47;;;;;;;3.00;1.30;;;13.60;99.90;;;;;;4993748;28;20394;-81
2022/11/05 14:24:22;;;;;;;4.85;1.65;;;13.60;99.90;;;;;;4976707;28;20453;-80
2022/11/05 14:27:09;;;;;;;3.28;1.50;;;13.60;99.90;;;;;;4979531;28;20022;-77
2022/11/05 14:29:40;;;;;;;2.65;1.40;;;13.60;99.90;;;;;;4991189;28;20030;-80
2022/11/05 14:32:40;;;;;;;4.50;1.40;;;13.60;99.90;;;;;;4997753;28;20101;-82
2022/11/05 14:35:15;;;;;;;3.85;1.17;;;13.60;99.90;;;;;;4985223;28;20035;-81
2022/11/05 14:37:41;;;;;;;1.50;1.00;;;13.60;99.90;;;;;;4978183;28;20052;-84
2022/11/05 14:40:31;;;;;;;4.07;1.17;;;13.60;99.90;;;;;;4997243;28;20030;-82
2022/11/05 14:43:04;;;;;;;2.50;1.10;;;13.60;99.90;;;;;;4997596;28;20025;-78
2022/11/05 14:45:35;;;;;;;5.80;1.45;;;13.60;99.90;;;;;;4997458;28;20060;-81